createdAt,value
2018-03-29T00:01:17.936Z,22.83
2018-03-29T00:03:45.342Z,23.43
2018-03-29T00:06:12.745Z,24.17
2018-03-29T00:08:40.153Z,24.40
2018-03-29T00:11:07.542Z,24.57
2018-03-29T00:13:34.920Z,25.10
2018-03-29T00:16:02.338Z,26.80
2018-03-29T00:18:29.744Z,26.02
2018-03-29T00:20:57.133Z,26.12
2018-03-29T00:23:24.545Z,26.10
2018-03-29T00:25:51.944Z,25.40
2018-03-29T00:28:19.336Z,28.77
2018-03-29T00:30:46.760Z,28.62
2018-03-29T00:33:14.127Z,27.87
2018-03-29T00:35:41.525Z,30.15
2018-03-29T00:38:08.928Z,31.52
2018-03-29T00:40:36.357Z,30.37
2018-03-29T00:43:03.823Z,30.67
2018-03-29T00:45:32.030Z,33.90
2018-03-29T00:47:59.476Z,34.13
2018-03-29T00:50:26.880Z,34.13
2018-03-29T00:52:54.276Z,34.33
2018-03-29T00:55:21.668Z,35.27
2018-03-29T00:57:49.057Z,34.50
2018-03-29T01:00:16.441Z,36.92
2018-03-29T01:02:43.846Z,36.00
2018-03-29T01:05:11.226Z,35.37
2018-03-29T01:07:38.616Z,34.90
2018-03-29T01:10:06.047Z,33.70
2018-03-29T01:12:33.428Z,34.30
2018-03-29T01:15:00.821Z,32.47
2018-03-29T01:17:28.217Z,33.60
2018-03-29T01:19:55.621Z,32.80
2018-03-29T01:22:23.008Z,32.57
2018-03-29T01:24:50.391Z,32.20
2018-03-29T01:27:17.796Z,34.07
2018-03-29T01:29:45.184Z,34.47
2018-03-29T01:32:12.564Z,31.80
2018-03-29T01:34:40.163Z,33.17
2018-03-29T01:37:07.558Z,29.77
2018-03-29T01:39:34.937Z,33.27
2018-03-29T01:42:02.339Z,31.60
2018-03-29T01:44:29.744Z,29.83
2018-03-29T01:46:57.149Z,32.17
2018-03-29T01:49:24.532Z,32.00
2018-03-29T01:51:51.920Z,32.33
2018-03-29T01:54:19.332Z,33.23
2018-03-29T01:56:46.743Z,31.80
2018-03-29T01:59:14.132Z,33.00
2018-03-29T02:01:41.506Z,33.27
2018-03-29T02:04:08.898Z,32.93
2018-03-29T02:06:36.298Z,32.60
2018-03-29T02:09:03.703Z,33.23
2018-03-29T02:11:31.062Z,33.10
2018-03-29T02:13:58.448Z,32.70
2018-03-29T02:16:25.829Z,34.00
2018-03-29T02:18:53.209Z,40.73
2018-03-29T02:21:20.588Z,35.30
2018-03-29T02:23:47.992Z,32.40
2018-03-29T02:26:15.411Z,33.43
2018-03-29T02:28:42.768Z,34.70
2018-03-29T02:31:10.152Z,33.20
2018-03-29T02:33:37.532Z,33.50
2018-03-29T02:36:04.916Z,30.93
2018-03-29T02:38:32.336Z,32.57
2018-03-29T02:40:59.753Z,32.50
2018-03-29T02:43:27.133Z,36.13
2018-03-29T02:45:54.529Z,33.03
2018-03-29T02:48:21.967Z,32.20
2018-03-29T02:50:49.360Z,36.90
2018-03-29T02:53:16.725Z,33.50
2018-03-29T02:55:44.141Z,31.03
2018-03-29T02:58:11.533Z,32.20
2018-03-29T03:00:38.929Z,29.53
2018-03-29T03:03:06.293Z,31.10
2018-03-29T03:05:33.677Z,32.30
2018-03-29T03:08:01.078Z,31.40
2018-03-29T03:10:28.456Z,30.53
2018-03-29T03:12:55.848Z,30.17
2018-03-29T03:15:23.229Z,31.07
2018-03-29T03:17:50.625Z,28.57
2018-03-29T03:20:18.000Z,29.00
2018-03-29T03:22:45.390Z,28.70
2018-03-29T03:25:12.776Z,29.30
2018-03-29T03:27:40.197Z,26.93
2018-03-29T03:30:07.575Z,26.50
2018-03-29T03:32:34.965Z,26.50
2018-03-29T03:35:02.349Z,25.87
2018-03-29T03:37:29.725Z,27.73
2018-03-29T03:39:57.116Z,26.00
2018-03-29T03:42:24.493Z,26.47
2018-03-29T03:44:51.892Z,27.60
2018-03-29T03:47:19.292Z,27.53
2018-03-29T03:49:46.678Z,27.30
2018-03-29T03:52:14.053Z,26.20
2018-03-29T03:54:41.458Z,24.77
2018-03-29T03:57:08.816Z,27.87
2018-03-29T03:59:36.208Z,28.97
2018-03-29T04:02:03.648Z,25.67
2018-03-29T04:04:31.025Z,26.23
2018-03-29T04:06:58.408Z,26.63
2018-03-29T04:09:25.847Z,29.43
2018-03-29T04:11:53.183Z,27.10
2018-03-29T04:14:20.576Z,31.07
2018-03-29T04:16:47.971Z,28.20
2018-03-29T04:19:15.383Z,26.47
2018-03-29T04:21:42.752Z,28.97
2018-03-29T04:24:10.130Z,25.83
2018-03-29T04:26:37.530Z,26.80
2018-03-29T04:29:04.930Z,28.07
2018-03-29T04:31:32.329Z,24.13
2018-03-29T04:33:59.712Z,26.30
2018-03-29T04:36:27.096Z,29.13
2018-03-29T04:38:54.489Z,30.77
2018-03-29T04:41:21.900Z,26.57
2018-03-29T04:43:49.277Z,26.67
2018-03-29T04:46:16.665Z,28.97
2018-03-29T04:48:44.062Z,25.80
2018-03-29T04:51:11.447Z,26.47
2018-03-29T04:53:38.825Z,26.90
2018-03-29T04:56:06.221Z,26.70
2018-03-29T04:58:33.620Z,27.50
2018-03-29T05:01:01.046Z,24.90
2018-03-29T05:03:28.459Z,27.70
2018-03-29T05:05:55.878Z,28.77
2018-03-29T05:08:23.257Z,29.17
2018-03-29T05:10:50.657Z,25.67
2018-03-29T05:13:18.061Z,30.03
2018-03-29T05:15:45.445Z,29.00
2018-03-29T05:18:12.862Z,26.73
2018-03-29T05:20:40.240Z,27.97
2018-03-29T05:23:07.633Z,28.37
2018-03-29T05:25:35.016Z,28.17
2018-03-29T05:28:02.431Z,28.23
2018-03-29T05:30:29.809Z,29.47
2018-03-29T05:32:57.194Z,29.90
2018-03-29T05:35:24.593Z,31.20
2018-03-29T05:37:51.976Z,29.37
2018-03-29T05:40:19.385Z,31.13
2018-03-29T05:42:46.799Z,31.37
2018-03-29T05:45:14.194Z,28.80
2018-03-29T05:47:41.597Z,29.33
2018-03-29T05:50:08.968Z,29.83
2018-03-29T05:52:36.357Z,29.93
2018-03-29T05:55:04.868Z,32.67
2018-03-29T05:57:32.272Z,27.87
2018-03-29T05:59:59.670Z,32.90
2018-03-29T06:02:27.049Z,32.87
2018-03-29T06:04:54.437Z,33.03
2018-03-29T06:07:21.821Z,32.17
2018-03-29T06:09:49.218Z,33.40
2018-03-29T06:12:16.609Z,30.97
2018-03-29T06:14:45.788Z,32.50
2018-03-29T06:17:18.705Z,30.90
2018-03-29T06:19:46.088Z,35.87
2018-03-29T06:22:13.461Z,35.90
2018-03-29T06:24:40.861Z,29.97
2018-03-29T06:27:08.236Z,32.87
2018-03-29T06:29:35.631Z,30.77
2018-03-29T06:32:03.007Z,30.07
2018-03-29T06:34:31.577Z,32.97
2018-03-29T06:36:58.985Z,29.67
2018-03-29T06:39:26.389Z,34.27
2018-03-29T06:41:53.786Z,29.90
2018-03-29T06:44:21.164Z,29.67
2018-03-29T06:46:48.556Z,33.03
2018-03-29T06:49:16.029Z,33.63
2018-03-29T06:51:43.482Z,33.47
2018-03-29T06:54:10.875Z,34.60
2018-03-29T06:56:38.252Z,31.80
2018-03-29T06:59:05.641Z,33.77
2018-03-29T07:01:33.029Z,40.80
2018-03-29T07:04:01.129Z,32.87
2018-03-29T07:06:28.536Z,31.37
2018-03-29T07:08:55.940Z,35.40
2018-03-29T07:11:23.372Z,33.90
2018-03-29T07:13:51.352Z,34.93
2018-03-29T07:16:18.745Z,33.00
2018-03-29T07:18:47.125Z,33.20
2018-03-29T07:21:14.524Z,32.00
2018-03-29T07:23:41.912Z,31.93
2018-03-29T07:26:09.330Z,34.00
2018-03-29T07:28:36.705Z,29.37
2018-03-29T07:31:04.106Z,27.97
2018-03-29T07:33:31.485Z,32.77
2018-03-29T07:35:58.868Z,30.40
2018-03-29T07:38:26.291Z,28.43
2018-03-29T07:40:53.684Z,29.13
2018-03-29T07:43:21.084Z,30.30
2018-03-29T07:45:48.469Z,31.60
2018-03-29T07:48:15.868Z,30.07
2018-03-29T07:50:43.268Z,29.50
2018-03-29T07:53:10.665Z,28.03
2018-03-29T07:55:38.031Z,30.07
2018-03-29T07:58:05.410Z,30.87
2018-03-29T08:00:32.828Z,27.80
2018-03-29T08:03:00.201Z,29.87
2018-03-29T08:05:27.618Z,29.33
2018-03-29T08:07:55.002Z,26.97
2018-03-29T08:10:22.388Z,28.30
2018-03-29T08:12:49.800Z,27.73
2018-03-29T08:15:17.228Z,28.10
2018-03-29T08:17:44.640Z,27.20
2018-03-29T08:20:12.041Z,27.60
2018-03-29T08:22:39.411Z,27.10
2018-03-29T08:25:06.805Z,28.43
2018-03-29T08:27:34.873Z,28.80
2018-03-29T08:30:02.281Z,28.57
2018-03-29T08:32:29.659Z,29.27
2018-03-29T08:34:57.052Z,28.10
2018-03-29T08:37:24.431Z,27.33
2018-03-29T08:39:51.839Z,26.17
2018-03-29T08:42:19.251Z,29.13
2018-03-29T08:44:46.620Z,26.87
2018-03-29T08:47:13.997Z,25.03
2018-03-29T08:49:41.373Z,25.53
2018-03-29T08:52:08.770Z,22.17
2018-03-29T08:54:36.145Z,26.00
2018-03-29T08:57:03.532Z,22.53
2018-03-29T08:59:30.922Z,23.87
2018-03-29T09:01:58.312Z,24.83
2018-03-29T09:04:25.695Z,24.17
2018-03-29T09:06:53.133Z,24.20
2018-03-29T09:09:20.503Z,24.57
2018-03-29T09:11:47.884Z,23.53
2018-03-29T09:14:15.260Z,23.53
2018-03-29T09:16:42.669Z,25.23
2018-03-29T09:19:10.091Z,22.67
2018-03-29T09:21:37.470Z,23.60
2018-03-29T09:24:04.861Z,25.20
2018-03-29T09:26:32.261Z,23.57
2018-03-29T09:28:59.660Z,24.90
2018-03-29T09:31:27.064Z,24.47
2018-03-29T09:33:54.449Z,22.13
2018-03-29T09:36:21.857Z,23.23
2018-03-29T09:38:49.252Z,21.13
2018-03-29T09:41:16.644Z,22.17
2018-03-29T09:43:44.036Z,20.53
2018-03-29T09:46:11.598Z,21.53
2018-03-29T09:48:38.968Z,21.30
2018-03-29T09:51:06.351Z,19.60
2018-03-29T09:53:33.752Z,20.70
2018-03-29T09:56:01.228Z,18.47
2018-03-29T09:58:28.608Z,17.60
2018-03-29T10:01:02.257Z,17.20
2018-03-29T10:03:29.663Z,15.93
2018-03-29T10:06:02.655Z,15.83
2018-03-29T10:08:30.064Z,14.53
2018-03-29T10:10:57.449Z,15.00
2018-03-29T10:13:24.832Z,14.40
2018-03-29T10:15:53.105Z,13.27
2018-03-29T10:18:20.472Z,14.77
2018-03-29T10:20:49.982Z,14.00
2018-03-29T10:23:17.453Z,14.00
2018-03-29T10:25:44.838Z,14.47
2018-03-29T10:28:12.224Z,15.70
2018-03-29T10:30:39.614Z,16.53
2018-03-29T10:33:08.001Z,15.40
2018-03-29T10:35:36.344Z,15.33
2018-03-29T10:38:03.757Z,16.13
2018-03-29T10:40:31.160Z,16.67
2018-03-29T10:42:58.597Z,17.13
2018-03-29T10:45:26.979Z,15.37
2018-03-29T10:47:54.364Z,17.17
2018-03-29T10:50:22.561Z,17.70
2018-03-29T10:52:50.564Z,19.70
2018-03-29T10:55:17.984Z,18.33
2018-03-29T10:57:48.782Z,16.60
2018-03-29T11:00:16.168Z,15.73
2018-03-29T11:02:43.548Z,15.40
2018-03-29T11:05:10.953Z,15.13
2018-03-29T11:07:38.359Z,16.60
2018-03-29T11:10:05.736Z,14.27
2018-03-29T11:12:33.152Z,13.70
2018-03-29T11:15:00.547Z,14.07
2018-03-29T11:17:27.933Z,17.00
2018-03-29T11:19:55.369Z,14.10
2018-03-29T11:22:22.789Z,12.83
2018-03-29T11:24:50.245Z,15.27
2018-03-29T11:27:17.637Z,15.63
2018-03-29T11:29:45.319Z,13.57
2018-03-29T11:32:12.688Z,15.97
2018-03-29T11:34:40.097Z,16.30
2018-03-29T11:37:07.527Z,15.07
2018-03-29T11:39:34.925Z,14.20
2018-03-29T11:42:02.318Z,14.20
2018-03-29T11:44:29.715Z,15.30
2018-03-29T11:46:57.105Z,14.37
2018-03-29T11:49:24.532Z,14.80
2018-03-29T11:51:51.913Z,15.23
2018-03-29T11:54:19.368Z,15.87
2018-03-29T11:56:46.781Z,16.03
2018-03-29T11:59:14.188Z,13.77
2018-03-29T12:01:41.580Z,14.60
2018-03-29T12:04:09.249Z,14.43
2018-03-29T12:06:36.641Z,14.67
2018-03-29T12:09:04.036Z,15.90
2018-03-29T12:11:31.437Z,14.80
2018-03-29T12:13:58.829Z,15.50
2018-03-29T12:16:26.204Z,16.37
2018-03-29T12:18:53.641Z,16.10
2018-03-29T12:21:21.025Z,15.33
2018-03-29T12:23:48.421Z,15.57
2018-03-29T12:26:16.332Z,17.33
2018-03-29T12:28:43.734Z,17.00
2018-03-29T12:31:11.120Z,17.17
2018-03-29T12:33:38.568Z,14.40
2018-03-29T12:36:07.632Z,12.97
2018-03-29T12:38:35.024Z,11.10
2018-03-29T12:41:02.441Z,11.47
2018-03-29T12:43:29.818Z,11.57
2018-03-29T12:45:57.212Z,11.53
2018-03-29T12:48:24.593Z,12.13
2018-03-29T12:50:51.978Z,11.40
2018-03-29T12:53:19.359Z,11.30
2018-03-29T12:55:47.324Z,12.00
2018-03-29T12:58:14.684Z,10.07
2018-03-29T13:00:42.085Z,9.73
2018-03-29T13:03:10.252Z,13.03
2018-03-29T13:05:37.642Z,11.43
2018-03-29T13:08:05.078Z,11.53
2018-03-29T13:10:32.465Z,12.23
2018-03-29T13:12:59.853Z,10.20
2018-03-29T13:15:27.258Z,11.10
2018-03-29T13:17:54.648Z,9.77
2018-03-29T13:20:22.843Z,10.10
2018-03-29T13:22:50.244Z,9.53
2018-03-29T13:25:18.641Z,9.10
2018-03-29T13:27:46.354Z,9.20
2018-03-29T13:30:13.805Z,9.40
2018-03-29T13:32:41.176Z,9.30
2018-03-29T13:35:08.560Z,9.67
2018-03-29T13:37:35.948Z,10.87
2018-03-29T13:40:03.346Z,10.73
2018-03-29T13:42:30.734Z,11.00
2018-03-29T13:44:58.128Z,12.93
2018-03-29T13:47:25.517Z,11.30
2018-03-29T13:49:52.920Z,9.90
2018-03-29T13:52:20.320Z,11.13
2018-03-29T13:54:47.708Z,10.70
2018-03-29T13:57:15.440Z,13.50
2018-03-29T13:59:42.850Z,12.53
2018-03-29T14:02:10.248Z,12.30
2018-03-29T14:04:37.641Z,11.87
2018-03-29T14:07:05.027Z,12.83
2018-03-29T14:09:32.488Z,12.90
2018-03-29T14:11:59.861Z,10.67
2018-03-29T14:14:27.616Z,11.67
2018-03-29T14:16:55.088Z,11.97
2018-03-29T14:19:22.477Z,11.90
2018-03-29T14:21:49.885Z,12.80
2018-03-29T14:24:17.262Z,13.50
2018-03-29T14:26:44.669Z,13.40
2018-03-29T14:29:12.101Z,13.70
2018-03-29T14:31:39.512Z,13.17
2018-03-29T14:34:06.903Z,14.43
2018-03-29T14:36:34.318Z,13.80
2018-03-29T14:39:01.713Z,12.53
2018-03-29T14:41:29.103Z,11.60
2018-03-29T14:43:56.518Z,11.40
2018-03-29T14:46:23.969Z,11.30
2018-03-29T14:48:51.341Z,11.57
2018-03-29T14:51:18.737Z,10.57
2018-03-29T14:53:46.116Z,11.27
2018-03-29T14:56:13.512Z,12.10
2018-03-29T14:58:40.910Z,11.50
2018-03-29T15:01:08.338Z,12.00
2018-03-29T15:03:35.725Z,12.17
2018-03-29T15:06:03.129Z,12.20
2018-03-29T15:08:30.524Z,11.83
2018-03-29T15:10:57.931Z,12.37
2018-03-29T15:13:25.368Z,13.27
2018-03-29T15:15:52.759Z,11.50
2018-03-29T15:18:20.184Z,11.30
2018-03-29T15:20:47.569Z,10.87
2018-03-29T15:23:14.956Z,11.90
2018-03-29T15:25:42.608Z,12.13
2018-03-29T15:28:10.133Z,12.20
2018-03-29T15:30:37.512Z,13.13
2018-03-29T15:33:04.892Z,12.13
2018-03-29T15:35:32.284Z,13.80
2018-03-29T15:37:59.672Z,12.40
2018-03-29T15:40:27.061Z,13.57
2018-03-29T15:42:55.270Z,12.93
2018-03-29T15:45:22.693Z,13.77
2018-03-29T15:47:50.081Z,12.97
2018-03-29T15:50:17.468Z,12.10
2018-03-29T15:52:44.865Z,12.40
2018-03-29T15:55:12.240Z,12.93
2018-03-29T15:57:39.638Z,13.40
2018-03-29T16:00:07.092Z,12.53
2018-03-29T16:02:34.500Z,13.77
2018-03-29T16:05:01.906Z,13.43
2018-03-29T16:07:29.300Z,12.97
2018-03-29T16:09:56.684Z,12.73
2018-03-29T16:12:24.205Z,11.20
2018-03-29T16:14:51.601Z,12.70
2018-03-29T16:17:19.005Z,12.73
2018-03-29T16:19:46.411Z,13.07
2018-03-29T16:22:13.828Z,13.30
2018-03-29T16:24:41.413Z,13.40
2018-03-29T16:27:08.799Z,14.23
2018-03-29T16:29:36.208Z,12.30
2018-03-29T16:32:03.645Z,12.00
2018-03-29T16:34:30.997Z,11.80
2018-03-29T16:36:58.392Z,12.77
2018-03-29T16:39:26.037Z,12.57
2018-03-29T16:41:53.542Z,12.43
2018-03-29T16:44:20.996Z,13.37
2018-03-29T16:46:48.406Z,12.03
2018-03-29T16:49:15.866Z,12.80
2018-03-29T16:51:43.348Z,13.07
2018-03-29T16:54:10.742Z,13.47
2018-03-29T16:56:38.304Z,12.10
2018-03-29T16:59:05.697Z,12.70
2018-03-29T17:01:33.149Z,10.53
2018-03-29T17:04:01.337Z,12.07
2018-03-29T17:06:28.878Z,12.90
2018-03-29T17:08:57.254Z,12.77
2018-03-29T17:11:24.626Z,12.40
2018-03-29T17:13:52.052Z,11.30
2018-03-29T17:16:19.442Z,12.20
2018-03-29T17:18:46.837Z,11.93
2018-03-29T17:21:14.341Z,11.70
2018-03-29T17:23:41.745Z,11.90
2018-03-29T17:26:09.132Z,12.50
2018-03-29T17:28:36.520Z,11.63
2018-03-29T17:31:03.908Z,12.10
2018-03-29T17:33:31.296Z,12.10
2018-03-29T17:35:58.685Z,11.40
2018-03-29T17:38:26.085Z,12.03
2018-03-29T17:40:53.470Z,12.47
2018-03-29T17:43:20.861Z,12.17
2018-03-29T17:45:48.253Z,11.00
2018-03-29T17:48:15.729Z,12.80
2018-03-29T17:50:43.096Z,11.83
2018-03-29T17:53:10.495Z,11.87
2018-03-29T17:55:37.899Z,11.87
2018-03-29T17:58:05.333Z,12.20
2018-03-29T18:00:32.743Z,11.80
2018-03-29T18:03:00.137Z,13.50
2018-03-29T18:05:27.617Z,12.80
2018-03-29T18:07:58.605Z,11.67
2018-03-29T18:10:25.984Z,12.37
2018-03-29T18:12:53.478Z,12.50
2018-03-29T18:15:20.850Z,12.73
2018-03-29T18:17:48.241Z,13.83
2018-03-29T18:20:15.678Z,13.13
2018-03-29T18:22:43.068Z,12.10
2018-03-29T18:25:10.462Z,11.93
2018-03-29T18:27:37.860Z,12.20
2018-03-29T18:30:05.253Z,11.87
2018-03-29T18:32:32.625Z,11.60
2018-03-29T18:35:00.053Z,12.57
2018-03-29T18:37:27.511Z,13.80
2018-03-29T18:39:54.888Z,13.40
2018-03-29T18:42:22.281Z,14.13
2018-03-29T18:44:49.669Z,15.07
2018-03-29T18:47:17.053Z,13.53
2018-03-29T18:49:44.450Z,13.90
2018-03-29T18:52:11.833Z,13.60
2018-03-29T18:54:39.238Z,13.30
2018-03-29T18:57:06.613Z,14.53
2018-03-29T18:59:33.993Z,13.23
2018-03-29T19:02:01.524Z,12.90
2018-03-29T19:04:28.912Z,13.60
2018-03-29T19:06:56.335Z,13.20
2018-03-29T19:09:23.709Z,13.87
2018-03-29T19:11:51.107Z,13.13
2018-03-29T19:14:18.493Z,14.20
2018-03-29T19:16:45.880Z,13.33
2018-03-29T19:19:13.257Z,13.33
2018-03-29T19:21:40.651Z,14.70
2018-03-29T19:24:08.044Z,14.00
2018-03-29T19:26:35.421Z,14.80
2018-03-29T19:29:02.813Z,14.17
2018-03-29T19:31:30.189Z,14.07
2018-03-29T19:33:57.593Z,13.90
2018-03-29T19:36:24.989Z,14.77
2018-03-29T19:38:52.633Z,15.17
2018-03-29T19:41:20.016Z,16.20
2018-03-29T19:43:47.392Z,17.10
2018-03-29T19:46:14.826Z,15.80
2018-03-29T19:48:42.164Z,15.57
2018-03-29T19:51:09.549Z,15.63
2018-03-29T19:53:36.932Z,14.77
2018-03-29T19:56:04.317Z,14.80
2018-03-29T19:58:31.725Z,14.50
2018-03-29T20:00:59.076Z,15.83
2018-03-29T20:03:26.466Z,15.67
2018-03-29T20:05:53.912Z,16.27
2018-03-29T20:08:21.292Z,16.07
2018-03-29T20:10:48.670Z,15.43
2018-03-29T20:13:16.054Z,15.30
2018-03-29T20:15:43.432Z,16.53
2018-03-29T20:18:10.817Z,15.67
2018-03-29T20:20:38.192Z,15.10
2018-03-29T20:23:05.580Z,15.57
2018-03-29T20:25:32.958Z,15.53
2018-03-29T20:28:00.344Z,15.10
2018-03-29T20:30:27.729Z,15.30
2018-03-29T20:32:55.392Z,14.73
2018-03-29T20:35:22.771Z,15.57
2018-03-29T20:37:50.152Z,15.40
2018-03-29T20:40:17.534Z,15.30
2018-03-29T20:42:44.911Z,15.20
2018-03-29T20:45:12.289Z,14.77
2018-03-29T20:47:39.669Z,15.53
2018-03-29T20:50:07.061Z,14.70
2018-03-29T20:52:34.437Z,14.27
2018-03-29T20:55:01.820Z,15.20
2018-03-29T20:57:29.200Z,15.80
2018-03-29T20:59:56.588Z,15.03
2018-03-29T21:02:23.968Z,14.10
2018-03-29T21:04:51.347Z,14.30
2018-03-29T21:07:18.728Z,14.13
2018-03-29T21:09:46.114Z,14.23
2018-03-29T21:12:13.492Z,15.03
2018-03-29T21:14:40.868Z,13.63
2018-03-29T21:17:08.253Z,14.37
2018-03-29T21:19:35.648Z,14.90
2018-03-29T21:22:03.040Z,14.50
2018-03-29T21:24:30.416Z,13.60
2018-03-29T21:26:57.792Z,14.40
2018-03-29T21:29:25.180Z,14.93
2018-03-29T21:31:52.572Z,14.03
2018-03-29T21:34:19.959Z,14.13
2018-03-29T21:36:47.341Z,15.30
2018-03-29T21:39:14.725Z,14.17
2018-03-29T21:41:42.105Z,13.50
2018-03-29T21:44:09.495Z,13.80
2018-03-29T21:46:36.912Z,13.23
2018-03-29T21:49:04.258Z,14.50
2018-03-29T21:51:31.646Z,14.70
2018-03-29T21:53:59.036Z,14.83
2018-03-29T21:56:26.408Z,13.80
2018-03-29T21:58:53.789Z,14.90
2018-03-29T22:01:21.173Z,14.53
2018-03-29T22:03:48.552Z,14.70
2018-03-29T22:06:15.950Z,14.40
2018-03-29T22:08:43.328Z,14.80
2018-03-29T22:11:10.713Z,14.83
2018-03-29T22:13:52.900Z,14.60
2018-03-29T22:16:20.296Z,15.37
2018-03-29T22:18:47.672Z,15.13
2018-03-29T22:21:15.057Z,14.43
2018-03-29T22:23:42.457Z,14.43
2018-03-29T22:26:09.833Z,15.17
2018-03-29T22:28:37.218Z,14.00
2018-03-29T22:31:04.597Z,14.70
2018-03-29T22:33:31.984Z,15.20
2018-03-29T22:35:59.363Z,15.10
2018-03-29T22:38:26.763Z,15.10
2018-03-29T22:40:54.129Z,15.70
2018-03-29T22:43:21.520Z,15.60
2018-03-29T22:45:48.899Z,15.20
2018-03-29T22:48:16.282Z,16.07
2018-03-29T22:50:43.665Z,15.40
2018-03-29T22:53:11.053Z,15.00
2018-03-29T22:55:38.439Z,15.03
2018-03-29T22:58:05.818Z,15.40
2018-03-29T23:00:34.968Z,15.97
2018-03-29T23:03:02.352Z,15.50
2018-03-29T23:05:29.732Z,15.67
2018-03-29T23:07:57.117Z,15.70
2018-03-29T23:10:24.509Z,15.27
2018-03-29T23:12:51.888Z,15.70
2018-03-29T23:15:19.268Z,15.03
2018-03-29T23:17:46.662Z,15.57
2018-03-29T23:20:14.041Z,15.80
2018-03-29T23:22:41.425Z,15.83
2018-03-29T23:25:08.801Z,15.17
2018-03-29T23:27:37.096Z,16.03
2018-03-29T23:30:04.476Z,15.93
2018-03-29T23:32:31.863Z,15.20
2018-03-29T23:34:59.236Z,15.20
2018-03-29T23:37:26.615Z,16.57
2018-03-29T23:39:53.993Z,15.23
2018-03-29T23:42:21.370Z,15.70
2018-03-29T23:44:48.752Z,15.83
2018-03-29T23:47:16.132Z,15.73
2018-03-29T23:49:43.516Z,15.70
2018-03-29T23:52:10.900Z,14.47
2018-03-29T23:54:38.285Z,15.00
2018-03-29T23:57:06.594Z,15.40
2018-03-29T23:59:33.977Z,15.90
